Time,TemperatureF,DewpointF,PressureIn,WindDirection,WindDirectionDegrees,WindSpeedMPH,WindSpeedGustMPH,Humidity,HourlyPrecipIn,Conditions,Clouds,dailyrainin,SolarRadiationWatts/m^2,SoftwareType,DateUTC
2013-03-28 00:00:00,37.0,24.0,30.33,NW,304,1.0,2.0,59,0.00,,,0.00,0,Wunderground v.1.15,2013-03-28 04:00:00,
2013-03-28 00:05:00,37.0,24.0,30.33,WNW,303,1.0,3.0,59,0.00,,,0.00,0,Wunderground v.1.15,2013-03-28 04:05:00,
2013-03-28 00:06:00,37.0,24.0,30.33,WNW,303,2.0,3.0,59,0.00,,,0.00,0,Wunderground v.1.15,2013-03-28 04:06:00,
2013-03-28 00:11:00,36.9,23.9,30.33,WNW,303,0.0,2.0,59,0.00,,,0.00,0,Wunderground v.1.15,2013-03-28 04:11:00,
2013-03-28 00:16:00,36.7,24.1,30.33,WNW,303,1.0,3.0,60,0.00,,,0.00,0,Wunderground v.1.15,2013-03-28 04:16:00,
2013-03-28 00:21:00,36.6,24.0,30.33,WNW,303,2.0,3.0,60,0.00,,,0.00,0,Wunderground v.1.15,2013-03-28 04:21:00,
2013-03-28 00:26:00,36.6,24.0,30.33,WNW,302,2.0,3.0,60,0.00,,,0.00,0,Wunderground v.1.15,2013-03-28 04:26:00,
2013-03-28 00:31:00,36.5,23.9,30.33,WNW,302,1.0,3.0,60,0.00,,,0.00,0,Wunderground v.1.15,2013-03-28 04:31:00,
2013-03-28 00:36:00,36.5,23.9,30.33,WNW,302,0.0,3.0,60,0.00,,,0.00,0,Wunderground v.1.15,2013-03-28 04:36:00,
2013-03-28 00:41:00,36.2,24.0,30.33,WNW,302,0.0,2.0,61,0.00,,,0.00,0,Wunderground v.1.15,2013-03-28 04:41:00,
2013-03-28 00:46:00,36.0,23.8,30.33,WNW,302,0.0,2.0,61,0.00,,,0.00,0,Wunderground v.1.15,2013-03-28 04:46:00,
2013-03-28 00:51:00,35.6,23.9,30.33,WNW,302,0.0,2.0,62,0.00,,,0.00,0,Wunderground v.1.15,2013-03-28 04:51:00,
2013-03-28 00:56:00,35.4,24.4,30.33,WNW,302,1.0,2.0,64,0.00,,,0.00,0,Wunderground v.1.15,2013-03-28 04:56:00,
2013-03-28 01:02:00,34.9,24.7,30.33,WNW,302,0.0,1.0,66,0.00,,,0.00,0,Wunderground v.1.15,2013-03-28 05:02:00,
2013-03-28 01:07:00,34.5,24.7,30.33,WNW,302,0.0,2.0,67,0.00,,,0.00,0,Wunderground v.1.15,2013-03-28 05:07:00,
2013-03-28 01:11:00,34.3,24.5,30.33,WNW,302,1.0,2.0,67,0.00,,,0.00,0,Wunderground v.1.15,2013-03-28 05:11:00,
2013-03-28 01:16:00,34.1,24.3,30.33,WNW,302,0.0,2.0,67,0.00,,,0.00,0,Wunderground v.1.15,2013-03-28 05:16:00,
2013-03-28 01:21:00,32.9,25.2,30.33,WNW,302,0.0,1.0,73,0.00,,,0.00,0,Wunderground v.1.15,2013-03-28 05:21:00,
2013-03-28 01:26:00,32.5,25.1,30.33,WNW,302,0.0,1.0,74,0.00,,,0.00,0,Wunderground v.1.15,2013-03-28 05:26:00,
2013-03-28 01:31:00,32.1,25.4,30.33,WNW,302,0.0,0.0,76,0.00,,,0.00,0,Wunderground v.1.15,2013-03-28 05:31:00,
2013-03-28 01:36:00,31.8,24.8,30.33,WNW,302,0.0,0.0,75,0.00,,,0.00,0,Wunderground v.1.15,2013-03-28 05:36:00,
2013-03-28 01:41:00,31.6,24.6,30.33,WNW,302,0.0,0.0,75,0.00,,,0.00,0,Wunderground v.1.15,2013-03-28 05:41:00,
2013-03-28 01:46:00,32.1,24.7,30.33,WNW,302,0.0,0.0,74,0.00,,,0.00,0,Wunderground v.1.15,2013-03-28 05:46:00,
2013-03-28 01:51:00,32.0,24.3,30.33,WNW,302,0.0,0.0,73,0.00,,,0.00,0,Wunderground v.1.15,2013-03-28 05:51:00,
2013-03-28 01:56:00,32.3,24.3,30.33,WNW,302,0.0,1.0,72,0.00,,,0.00,0,Wunderground v.1.15,2013-03-28 05:56:00,
2013-03-28 02:01:00,31.4,24.7,30.33,WNW,302,0.0,0.0,76,0.00,,,0.00,0,Wunderground v.1.15,2013-03-28 06:01:00,
2013-03-28 02:06:00,31.1,24.7,30.33,WNW,302,0.0,0.0,77,0.00,,,0.00,0,Wunderground v.1.15,2013-03-28 06:06:00,
2013-03-28 02:11:00,31.3,24.9,30.33,WNW,302,0.0,0.0,77,0.00,,,0.00,0,Wunderground v.1.15,2013-03-28 06:11:00,
2013-03-28 02:16:00,31.1,24.7,30.33,WNW,302,0.0,0.0,77,0.00,,,0.00,0,Wunderground v.1.15,2013-03-28 06:16:00,
2013-03-28 02:21:00,31.4,24.4,30.33,WNW,302,0.0,1.0,75,0.00,,,0.00,0,Wunderground v.1.15,2013-03-28 06:21:00,
2013-03-28 02:26:00,31.4,24.4,30.33,WNW,302,1.0,2.0,75,0.00,,,0.00,0,Wunderground v.1.15,2013-03-28 06:26:00,
2013-03-28 02:31:00,31.1,24.1,30.33,WNW,303,0.0,0.0,75,0.00,,,0.00,0,Wunderground v.1.15,2013-03-28 06:31:00,
2013-03-28 02:36:00,30.8,24.1,30.33,WNW,303,0.0,0.0,76,0.00,,,0.00,0,Wunderground v.1.15,2013-03-28 06:36:00,
2013-03-28 02:41:00,30.6,23.9,30.33,WNW,303,0.0,0.0,76,0.00,,,0.00,0,Wunderground v.1.15,2013-03-28 06:41:00,
2013-03-28 02:46:00,31.2,24.2,30.33,WNW,303,0.0,2.0,75,0.00,,,0.00,0,Wunderground v.1.15,2013-03-28 06:46:00,
2013-03-28 02:51:00,31.1,24.4,30.33,WNW,303,0.0,0.0,76,0.00,,,0.00,0,Wunderground v.1.15,2013-03-28 06:51:00,
2013-03-28 02:56:00,30.4,24.4,30.33,WNW,303,0.0,0.0,78,0.00,,,0.00,0,Wunderground v.1.15,2013-03-28 06:56:00,
2013-03-28 03:01:00,30.2,24.5,30.33,WNW,303,0.0,0.0,79,0.00,,,0.00,0,Wunderground v.1.15,2013-03-28 07:01:00,
2013-03-28 03:07:00,29.9,24.5,30.33,WNW,303,0.0,0.0,80,0.00,,,0.00,0,Wunderground v.1.15,2013-03-28 07:07:00,
2013-03-28 03:12:00,29.7,24.3,30.33,WNW,303,0.0,0.0,80,0.00,,,0.00,0,Wunderground v.1.15,2013-03-28 07:12:00,
2013-03-28 03:17:00,29.9,24.5,30.33,WNW,303,0.0,0.0,80,0.00,,,0.00,0,Wunderground v.1.15,2013-03-28 07:17:00,
2013-03-28 03:22:00,30.0,24.3,30.33,WNW,303,0.0,0.0,79,0.00,,,0.00,0,Wunderground v.1.15,2013-03-28 07:22:00,
2013-03-28 03:27:00,29.6,23.9,30.33,WNW,303,0.0,0.0,79,0.00,,,0.00,0,Wunderground v.1.15,2013-03-28 07:27:00,
2013-03-28 03:32:00,29.4,23.7,30.32,WNW,303,0.0,0.0,79,0.00,,,0.00,0,Wunderground v.1.15,2013-03-28 07:32:00,
2013-03-28 03:37:00,30.0,24.0,30.33,WNW,303,0.0,0.0,78,0.00,,,0.00,0,Wunderground v.1.15,2013-03-28 07:37:00,
2013-03-28 03:42:00,30.1,23.8,30.33,WNW,303,0.0,0.0,77,0.00,,,0.00,0,Wunderground v.1.15,2013-03-28 07:42:00,
2013-03-28 03:47:00,30.0,24.0,30.33,WNW,303,0.0,0.0,78,0.00,,,0.00,0,Wunderground v.1.15,2013-03-28 07:47:00,
2013-03-28 03:52:00,30.2,23.9,30.33,WNW,303,0.0,0.0,77,0.00,,,0.00,0,Wunderground v.1.15,2013-03-28 07:52:00,
2013-03-28 03:57:00,30.3,24.0,30.33,WNW,303,0.0,0.0,77,0.00,,,0.00,0,Wunderground v.1.15,2013-03-28 07:57:00,
2013-03-28 04:02:00,30.2,24.2,30.33,WNW,303,0.0,0.0,78,0.00,,,0.00,0,Wunderground v.1.15,2013-03-28 08:02:00,
2013-03-28 04:07:00,29.7,24.0,30.33,WNW,303,0.0,0.0,79,0.00,,,0.00,0,Wunderground v.1.15,2013-03-28 08:07:00,
2013-03-28 04:12:00,29.5,23.8,30.33,WNW,303,0.0,0.0,79,0.00,,,0.00,0,Wunderground v.1.15,2013-03-28 08:12:00,
2013-03-28 04:17:00,29.1,23.4,30.33,WNW,303,0.0,0.0,79,0.00,,,0.00,0,Wunderground v.1.15,2013-03-28 08:17:00,
2013-03-28 04:22:00,28.6,23.2,30.33,WNW,303,0.0,0.0,80,0.00,,,0.00,0,Wunderground v.1.15,2013-03-28 08:22:00,
2013-03-28 04:27:00,28.7,23.6,30.33,WNW,303,0.0,0.0,81,0.00,,,0.00,0,Wunderground v.1.15,2013-03-28 08:27:00,
2013-03-28 04:32:00,28.4,23.3,30.33,WNW,303,0.0,0.0,81,0.00,,,0.00,0,Wunderground v.1.15,2013-03-28 08:32:00,
2013-03-28 04:37:00,28.2,23.4,30.32,WNW,303,0.0,0.0,82,0.00,,,0.00,0,Wunderground v.1.15,2013-03-28 08:37:00,
2013-03-28 04:42:00,28.2,23.4,30.33,WNW,303,0.0,0.0,82,0.00,,,0.00,0,Wunderground v.1.15,2013-03-28 08:42:00,
2013-03-28 04:47:00,28.3,23.5,30.33,WNW,303,0.0,0.0,82,0.00,,,0.00,0,Wunderground v.1.15,2013-03-28 08:47:00,
2013-03-28 04:52:00,28.3,23.5,30.33,WNW,303,0.0,0.0,82,0.00,,,0.00,0,Wunderground v.1.15,2013-03-28 08:52:00,
2013-03-28 04:57:00,28.7,23.9,30.32,WNW,303,0.0,0.0,82,0.00,,,0.00,0,Wunderground v.1.15,2013-03-28 08:57:00,
2013-03-28 05:02:00,28.9,23.8,30.33,WNW,303,0.0,1.0,81,0.00,,,0.00,0,Wunderground v.1.15,2013-03-28 09:02:00,
2013-03-28 05:07:00,28.7,23.6,30.33,WNW,303,0.0,1.0,81,0.00,,,0.00,0,Wunderground v.1.15,2013-03-28 09:07:00,
2013-03-28 05:12:00,28.7,23.3,30.33,WNW,303,0.0,0.0,80,0.00,,,0.00,0,Wunderground v.1.15,2013-03-28 09:12:00,
2013-03-28 05:17:00,28.5,23.4,30.33,WNW,303,0.0,0.0,81,0.00,,,0.00,0,Wunderground v.1.15,2013-03-28 09:17:00,
2013-03-28 05:22:00,28.4,23.6,30.33,WNW,303,0.0,0.0,82,0.00,,,0.00,0,Wunderground v.1.15,2013-03-28 09:22:00,
2013-03-28 05:27:00,28.1,23.3,30.33,WNW,303,1.0,1.0,82,0.00,,,0.00,0,Wunderground v.1.15,2013-03-28 09:27:00,
2013-03-28 05:32:00,28.1,23.6,30.33,WNW,303,0.0,0.0,83,0.00,,,0.00,0,Wunderground v.1.15,2013-03-28 09:32:00,
2013-03-28 05:37:00,28.1,23.3,30.33,WNW,303,0.0,0.0,82,0.00,,,0.00,0,Wunderground v.1.15,2013-03-28 09:37:00,
2013-03-28 05:42:00,27.7,22.9,30.33,WNW,303,0.0,0.0,82,0.00,,,0.00,0,Wunderground v.1.15,2013-03-28 09:42:00,
2013-03-28 05:47:00,27.4,22.9,30.33,WNW,303,0.0,0.0,83,0.00,,,0.00,0,Wunderground v.1.15,2013-03-28 09:47:00,
2013-03-28 05:52:00,27.2,22.7,30.33,WNW,303,0.0,0.0,83,0.00,,,0.00,0,Wunderground v.1.15,2013-03-28 09:52:00,
2013-03-28 05:57:00,27.2,22.7,30.33,WNW,303,0.0,0.0,83,0.00,,,0.00,0,Wunderground v.1.15,2013-03-28 09:57:00,
2013-03-28 06:02:00,27.3,23.1,30.33,WNW,303,0.0,0.0,84,0.00,,,0.00,0,Wunderground v.1.15,2013-03-28 10:02:00,
2013-03-28 06:07:00,27.1,22.6,30.33,WNW,303,0.0,0.0,83,0.00,,,0.00,0,Wunderground v.1.15,2013-03-28 10:07:00,
2013-03-28 06:12:00,27.0,22.8,30.33,WNW,303,0.0,0.0,84,0.00,,,0.00,0,Wunderground v.1.15,2013-03-28 10:12:00,
2013-03-28 06:17:00,26.8,22.6,30.34,WNW,303,0.0,0.0,84,0.00,,,0.00,0,Wunderground v.1.15,2013-03-28 10:17:00,
2013-03-28 06:22:00,26.8,22.9,30.34,WNW,303,0.0,0.0,85,0.00,,,0.00,0,Wunderground v.1.15,2013-03-28 10:22:00,
2013-03-28 06:27:00,27.0,22.8,30.34,WNW,303,0.0,0.0,84,0.00,,,0.00,0,Wunderground v.1.15,2013-03-28 10:27:00,
2013-03-28 06:32:00,27.0,23.1,30.34,WNW,303,0.0,0.0,85,0.00,,,0.00,0,Wunderground v.1.15,2013-03-28 10:32:00,
2013-03-28 06:37:00,27.0,23.1,30.34,WNW,303,0.0,0.0,85,0.00,,,0.00,0,Wunderground v.1.15,2013-03-28 10:37:00,
2013-03-28 06:42:00,26.8,22.9,30.34,WNW,303,0.0,0.0,85,0.00,,,0.00,0,Wunderground v.1.15,2013-03-28 10:42:00,
2013-03-28 06:47:00,26.6,22.7,30.34,WNW,303,0.0,0.0,85,0.00,,,0.00,0,Wunderground v.1.15,2013-03-28 10:47:00,
2013-03-28 06:52:00,26.3,22.4,30.35,WNW,303,0.0,0.0,85,0.00,,,0.00,0,Wunderground v.1.15,2013-03-28 10:52:00,
2013-03-28 06:57:00,26.1,22.5,30.35,WNW,303,0.0,0.0,86,0.00,,,0.00,0,Wunderground v.1.15,2013-03-28 10:57:00,
2013-03-28 07:02:00,26.1,22.5,30.35,WNW,303,0.0,0.0,86,0.00,,,0.00,0,Wunderground v.1.15,2013-03-28 11:02:00,
2013-03-28 07:07:00,26.0,22.4,30.35,WNW,303,0.0,0.0,86,0.00,,,0.00,0,Wunderground v.1.15,2013-03-28 11:07:00,
2013-03-28 07:12:00,25.9,22.3,30.35,WNW,303,0.0,0.0,86,0.00,,,0.00,0,Wunderground v.1.15,2013-03-28 11:12:00,
2013-03-28 07:17:00,25.9,22.3,30.35,WNW,303,0.0,0.0,86,0.00,,,0.00,0,Wunderground v.1.15,2013-03-28 11:17:00,
2013-03-28 07:22:00,25.7,22.1,30.35,WNW,303,0.0,0.0,86,0.00,,,0.00,0,Wunderground v.1.15,2013-03-28 11:22:00,
2013-03-28 07:27:00,26.2,22.9,30.35,WNW,303,0.0,0.0,87,0.00,,,0.00,0,Wunderground v.1.15,2013-03-28 11:27:00,
2013-03-28 07:32:00,26.2,22.6,30.36,WNW,303,0.0,0.0,86,0.00,,,0.00,5,Wunderground v.1.15,2013-03-28 11:32:00,
2013-03-28 07:37:00,26.2,22.6,30.36,WNW,303,0.0,1.0,86,0.00,,,0.00,9,Wunderground v.1.15,2013-03-28 11:37:00,
2013-03-28 07:42:00,26.2,22.6,30.36,WNW,303,0.0,0.0,86,0.00,,,0.00,14,Wunderground v.1.15,2013-03-28 11:42:00,
2013-03-28 07:47:00,26.3,22.7,30.36,WNW,303,0.0,0.0,86,0.00,,,0.00,19,Wunderground v.1.15,2013-03-28 11:47:00,
2013-03-28 07:52:00,26.5,22.9,30.36,WNW,303,0.0,0.0,86,0.00,,,0.00,25,Wunderground v.1.15,2013-03-28 11:52:00,
2013-03-28 07:57:00,26.9,23.3,30.36,WNW,302,0.0,1.0,86,0.00,,,0.00,35,Wunderground v.1.15,2013-03-28 11:57:00,
2013-03-28 08:02:00,26.9,23.3,30.36,WNW,302,0.0,0.0,86,0.00,,,0.00,53,Wunderground v.1.15,2013-03-28 12:02:00,
2013-03-28 08:08:00,27.0,23.1,30.36,WNW,302,0.0,1.0,85,0.00,,,0.00,67,Wunderground v.1.15,2013-03-28 12:08:00,
2013-03-28 08:13:00,27.2,23.3,30.36,WNW,302,0.0,0.0,85,0.00,,,0.00,81,Wunderground v.1.15,2013-03-28 12:13:00,
2013-03-28 08:18:00,27.7,23.8,30.36,WNW,302,0.0,0.0,85,0.00,,,0.00,98,Wunderground v.1.15,2013-03-28 12:18:00,
2013-03-28 08:23:00,27.9,24.0,30.37,WNW,302,0.0,0.0,85,0.00,,,0.00,116,Wunderground v.1.15,2013-03-28 12:23:00,
2013-03-28 08:28:00,29.1,24.9,30.37,WNW,302,0.0,0.0,84,0.00,,,0.00,134,Wunderground v.1.15,2013-03-28 12:28:00,
2013-03-28 08:33:00,28.8,24.9,30.37,WNW,302,0.0,0.0,85,0.00,,,0.00,153,Wunderground v.1.15,2013-03-28 12:33:00,
2013-03-28 08:38:00,28.8,25.4,30.37,WNW,302,0.0,0.0,87,0.00,,,0.00,176,Wunderground v.1.15,2013-03-28 12:38:00,
2013-03-28 08:43:00,29.7,26.0,30.37,WNW,302,0.0,0.0,86,0.00,,,0.00,199,Wunderground v.1.15,2013-03-28 12:43:00,
2013-03-28 08:48:00,30.4,26.4,30.37,WNW,302,0.0,0.0,85,0.00,,,0.00,216,Wunderground v.1.15,2013-03-28 12:48:00,
2013-03-28 08:53:00,31.4,26.8,30.38,NW,304,1.0,1.0,83,0.00,,,0.00,230,Wunderground v.1.15,2013-03-28 12:53:00,
2013-03-28 08:58:00,32.0,26.5,30.38,NW,309,1.0,2.0,80,0.00,,,0.00,248,Wunderground v.1.15,2013-03-28 12:58:00,
2013-03-28 09:03:00,32.9,26.5,30.38,North,5,2.0,3.0,77,0.00,,,0.00,264,Wunderground v.1.15,2013-03-28 13:03:00,
2013-03-28 09:08:00,33.4,26.3,30.38,North,5,0.0,4.0,75,0.00,,,0.00,281,Wunderground v.1.15,2013-03-28 13:08:00,
2013-03-28 09:13:00,34.0,26.6,30.38,North,9,1.0,3.0,74,0.00,,,0.00,301,Wunderground v.1.15,2013-03-28 13:13:00,
2013-03-28 09:18:00,34.8,27.0,30.38,North,9,1.0,3.0,73,0.00,,,0.00,320,Wunderground v.1.15,2013-03-28 13:18:00,
2013-03-28 09:23:00,35.4,26.6,30.39,North,5,0.0,4.0,70,0.00,,,0.00,334,Wunderground v.1.15,2013-03-28 13:23:00,
2013-03-28 09:28:00,35.9,26.4,30.39,North,5,1.0,4.0,68,0.00,,,0.00,355,Wunderground v.1.15,2013-03-28 13:28:00,
2013-03-28 09:33:00,35.7,26.2,30.39,NE,44,4.0,5.0,68,0.00,,,0.00,376,Wunderground v.1.15,2013-03-28 13:33:00,
2013-03-28 09:38:00,35.6,26.1,30.39,NNE,24,3.0,5.0,68,0.00,,,0.00,394,Wunderground v.1.15,2013-03-28 13:38:00,
2013-03-28 09:43:00,36.0,26.1,30.39,NNE,17,2.0,4.0,67,0.00,,,0.00,406,Wunderground v.1.15,2013-03-28 13:43:00,
2013-03-28 09:48:00,36.6,25.9,30.39,NE,35,3.0,6.0,65,0.00,,,0.00,427,Wunderground v.1.15,2013-03-28 13:48:00,
2013-03-28 09:53:00,37.1,26.8,30.39,NNE,29,4.0,6.0,66,0.00,,,0.00,441,Wunderground v.1.15,2013-03-28 13:53:00,
2013-03-28 09:58:00,37.5,27.5,30.39,ENE,66,3.0,6.0,67,0.00,,,0.00,464,Wunderground v.1.15,2013-03-28 13:58:00,
2013-03-28 10:03:00,37.8,26.3,30.39,NNE,19,4.0,8.0,63,0.00,,,0.00,482,Wunderground v.1.15,2013-03-28 14:03:00,
2013-03-28 10:08:00,37.9,26.0,30.39,NE,51,4.0,8.0,62,0.00,,,0.00,496,Wunderground v.1.15,2013-03-28 14:08:00,
2013-03-28 10:13:00,37.5,24.9,30.39,ENE,63,4.0,7.0,60,0.00,,,0.00,515,Wunderground v.1.15,2013-03-28 14:13:00,
2013-03-28 10:18:00,38.2,25.9,30.39,ENE,59,4.0,7.0,61,0.00,,,0.00,538,Wunderground v.1.15,2013-03-28 14:18:00,
2013-03-28 10:23:00,39.1,26.8,30.39,NNE,27,2.0,6.0,61,0.00,,,0.00,464,Wunderground v.1.15,2013-03-28 14:23:00,
2013-03-28 10:28:00,39.2,25.6,30.39,North,350,4.0,6.0,58,0.00,,,0.00,443,Wunderground v.1.15,2013-03-28 14:28:00,
2013-03-28 10:33:00,39.5,26.8,30.39,North,360,3.0,5.0,60,0.00,,,0.00,369,Wunderground v.1.15,2013-03-28 14:33:00,
2013-03-28 10:38:00,39.3,26.2,30.39,NE,34,2.0,5.0,59,0.00,,,0.00,410,Wunderground v.1.15,2013-03-28 14:38:00,
2013-03-28 10:43:00,39.3,26.6,30.40,NE,51,2.0,6.0,60,0.00,,,0.00,397,Wunderground v.1.15,2013-03-28 14:43:00,
2013-03-28 10:48:00,39.6,26.4,30.40,NNE,17,6.0,6.0,59,0.00,,,0.00,390,Wunderground v.1.15,2013-03-28 14:48:00,
2013-03-28 10:53:00,39.5,25.9,30.40,NNE,18,4.0,7.0,58,0.00,,,0.00,357,Wunderground v.1.15,2013-03-28 14:53:00,
2013-03-28 10:58:00,39.6,26.4,30.40,NE,55,2.0,7.0,59,0.00,,,0.00,392,Wunderground v.1.15,2013-03-28 14:58:00,
2013-03-28 11:03:00,40.1,26.1,30.40,NNW,340,2.0,5.0,57,0.00,,,0.00,387,Wunderground v.1.15,2013-03-28 15:03:00,
2013-03-28 11:08:00,41.1,27.9,30.40,North,360,2.0,5.0,59,0.00,,,0.00,789,Wunderground v.1.15,2013-03-28 15:08:00,
2013-03-28 11:13:00,40.5,26.4,30.40,NE,56,5.0,8.0,57,0.00,,,0.00,652,Wunderground v.1.15,2013-03-28 15:13:00,
2013-03-28 11:18:00,41.0,27.3,30.40,NNE,32,2.0,9.0,58,0.00,,,0.00,788,Wunderground v.1.15,2013-03-28 15:18:00,
2013-03-28 11:23:00,40.6,26.1,30.40,ENE,60,3.0,8.0,56,0.00,,,0.00,854,Wunderground v.1.15,2013-03-28 15:23:00,
2013-03-28 11:28:00,40.2,26.2,30.39,NE,44,7.0,11.0,57,0.00,,,0.00,550,Wunderground v.1.15,2013-03-28 15:28:00,
2013-03-28 11:33:00,40.4,26.4,30.39,NNE,16,4.0,10.0,57,0.00,,,0.00,348,Wunderground v.1.15,2013-03-28 15:33:00,
2013-03-28 11:38:00,40.9,26.4,30.39,NNE,30,5.0,10.0,56,0.00,,,0.00,313,Wunderground v.1.15,2013-03-28 15:38:00,
2013-03-28 11:43:00,41.7,27.1,30.40,NNE,32,1.0,6.0,56,0.00,,,0.00,979,Wunderground v.1.15,2013-03-28 15:43:00,
2013-03-28 11:48:00,43.0,26.6,30.40,WNW,292,6.0,6.0,52,0.00,,,0.00,1005,Wunderground v.1.15,2013-03-28 15:48:00,
2013-03-28 11:53:00,43.4,26.5,30.40,North,5,6.0,8.0,51,0.00,,,0.00,1042,Wunderground v.1.15,2013-03-28 15:53:00,
2013-03-28 11:58:00,41.9,25.5,30.39,NE,49,5.0,8.0,52,0.00,,,0.00,338,Wunderground v.1.15,2013-03-28 15:58:00,
2013-03-28 12:03:00,42.1,27.9,30.39,NE,54,6.0,8.0,57,0.00,,,0.00,947,Wunderground v.1.15,2013-03-28 16:03:00,
2013-03-28 12:08:00,42.5,26.1,30.39,WNW,294,2.0,8.0,52,0.00,,,0.00,313,Wunderground v.1.15,2013-03-28 16:08:00,
2013-03-28 12:13:00,43.4,25.5,30.39,West,270,3.0,7.0,49,0.00,,,0.00,969,Wunderground v.1.15,2013-03-28 16:13:00,
2013-03-28 12:18:00,44.4,25.9,30.39,WSW,257,5.0,7.0,48,0.00,,,0.00,359,Wunderground v.1.15,2013-03-28 16:18:00,
2013-03-28 12:23:00,43.6,26.2,30.39,NW,316,5.0,10.0,50,0.00,,,0.00,371,Wunderground v.1.15,2013-03-28 16:23:00,
2013-03-28 12:28:00,43.4,26.0,30.39,WNW,302,3.0,10.0,50,0.00,,,0.00,315,Wunderground v.1.15,2013-03-28 16:28:00,
2013-03-28 12:33:00,44.3,26.3,30.39,WNW,298,5.0,9.0,49,0.00,,,0.00,951,Wunderground v.1.15,2013-03-28 16:33:00,
2013-03-28 12:38:00,44.0,26.0,30.39,North,350,2.0,9.0,49,0.00,,,0.00,946,Wunderground v.1.15,2013-03-28 16:38:00,
2013-03-28 12:43:00,45.0,28.4,30.39,NE,46,4.0,6.0,52,0.00,,,0.00,1039,Wunderground v.1.15,2013-03-28 16:43:00,
2013-03-28 12:48:00,44.4,28.3,30.39,NNE,24,5.0,6.0,53,0.00,,,0.00,1079,Wunderground v.1.15,2013-03-28 16:48:00,
2013-03-28 12:53:00,44.5,26.5,30.39,NNW,331,5.0,11.0,49,0.00,,,0.00,295,Wunderground v.1.15,2013-03-28 16:53:00,
2013-03-28 12:58:00,43.6,25.7,30.39,NW,306,2.0,11.0,49,0.00,,,0.00,362,Wunderground v.1.15,2013-03-28 16:58:00,
2013-03-28 13:03:00,45.0,27.9,30.39,WNW,302,3.0,9.0,51,0.00,,,0.00,1005,Wunderground v.1.15,2013-03-28 17:03:00,
2013-03-28 13:08:00,46.7,28.0,30.38,SW,234,6.0,9.0,48,0.00,,,0.00,1079,Wunderground v.1.15,2013-03-28 17:08:00,
2013-03-28 13:13:00,47.2,26.9,30.38,WNW,290,6.0,6.0,45,0.00,,,0.00,325,Wunderground v.1.15,2013-03-28 17:13:00,
2013-03-28 13:18:00,46.5,26.8,30.38,West,271,3.0,10.0,46,0.00,,,0.00,1079,Wunderground v.1.15,2013-03-28 17:18:00,
2013-03-28 13:23:00,45.8,26.2,30.38,West,280,0.0,6.0,46,0.00,,,0.00,325,Wunderground v.1.15,2013-03-28 17:23:00,
2013-03-28 13:28:00,45.7,26.1,30.38,NNW,343,5.0,9.0,46,0.00,,,0.00,311,Wunderground v.1.15,2013-03-28 17:28:00,
2013-03-28 13:33:00,46.0,25.8,30.38,WNW,283,3.0,10.0,45,0.00,,,0.00,986,Wunderground v.1.15,2013-03-28 17:33:00,
2013-03-28 13:38:00,46.5,26.3,30.38,NW,317,7.0,10.0,45,0.00,,,0.00,974,Wunderground v.1.15,2013-03-28 17:38:00,
2013-03-28 13:43:00,46.5,26.8,30.38,NW,321,4.0,8.0,46,0.00,,,0.00,995,Wunderground v.1.15,2013-03-28 17:43:00,
2013-03-28 13:48:00,46.2,26.5,30.38,NW,312,3.0,8.0,46,0.00,,,0.00,1028,Wunderground v.1.15,2013-03-28 17:48:00,
2013-03-28 13:53:00,46.8,26.0,30.37,WNW,302,0.0,8.0,44,0.00,,,0.00,506,Wunderground v.1.15,2013-03-28 17:53:00,
2013-03-28 13:58:00,47.1,26.8,30.38,NNW,343,7.0,8.0,45,0.00,,,0.00,951,Wunderground v.1.15,2013-03-28 17:58:00,
2013-03-28 14:03:00,46.0,25.8,30.37,NW,318,6.0,9.0,45,0.00,,,0.00,287,Wunderground v.1.15,2013-03-28 18:03:00,
2013-03-28 14:08:00,46.0,27.4,30.37,WNW,285,5.0,9.0,48,0.00,,,0.00,969,Wunderground v.1.15,2013-03-28 18:08:00,
2013-03-28 14:13:00,46.5,26.8,30.37,North,355,4.0,7.0,46,0.00,,,0.00,960,Wunderground v.1.15,2013-03-28 18:13:00,
2013-03-28 14:18:00,46.6,25.8,30.37,East,93,1.0,7.0,44,0.00,,,0.00,942,Wunderground v.1.15,2013-03-28 18:18:00,
2013-03-28 14:23:00,46.8,28.1,30.36,West,279,6.0,6.0,48,0.00,,,0.00,949,Wunderground v.1.15,2013-03-28 18:23:00,
2013-03-28 14:28:00,48.3,26.8,30.37,West,269,0.0,8.0,43,0.00,,,0.00,898,Wunderground v.1.15,2013-03-28 18:28:00,
2013-03-28 14:33:00,47.8,25.8,30.36,NNE,23,0.0,4.0,42,0.00,,,0.00,898,Wunderground v.1.15,2013-03-28 18:33:00,
2013-03-28 14:38:00,46.7,26.5,30.36,NE,41,6.0,7.0,45,0.00,,,0.00,898,Wunderground v.1.15,2013-03-28 18:38:00,
2013-03-28 14:43:00,46.8,26.6,30.36,ENE,63,2.0,7.0,45,0.00,,,0.00,918,Wunderground v.1.15,2013-03-28 18:43:00,
2013-03-28 14:48:00,47.4,26.6,30.36,WNW,290,5.0,8.0,44,0.00,,,0.00,875,Wunderground v.1.15,2013-03-28 18:48:00,
2013-03-28 14:53:00,47.9,25.9,30.36,West,281,2.0,8.0,42,0.00,,,0.00,868,Wunderground v.1.15,2013-03-28 18:53:00,
2013-03-28 14:58:00,48.4,27.5,30.36,WNW,298,0.0,8.0,44,0.00,,,0.00,867,Wunderground v.1.15,2013-03-28 18:58:00,
2013-03-28 15:03:00,48.4,27.5,30.35,NNE,20,5.0,6.0,44,0.00,,,0.00,865,Wunderground v.1.15,2013-03-28 19:03:00,
2013-03-28 15:08:00,48.2,27.8,30.35,NW,324,3.0,9.0,45,0.00,,,0.00,856,Wunderground v.1.15,2013-03-28 19:08:00,
2013-03-28 15:13:00,47.3,25.9,30.35,East,97,3.0,8.0,43,0.00,,,0.00,847,Wunderground v.1.15,2013-03-28 19:13:00,
2013-03-28 15:18:00,48.0,25.4,30.35,WNW,303,0.0,8.0,41,0.00,,,0.00,819,Wunderground v.1.15,2013-03-28 19:18:00,
2013-03-28 15:24:00,47.8,26.4,30.35,NW,317,2.0,4.0,43,0.00,,,0.00,812,Wunderground v.1.15,2013-03-28 19:24:00,
2013-03-28 15:29:00,49.1,25.2,30.34,NW,306,1.0,9.0,39,0.00,,,0.00,812,Wunderground v.1.15,2013-03-28 19:29:00,
2013-03-28 15:34:00,50.0,25.4,30.34,NW,325,2.0,8.0,38,0.00,,,0.00,780,Wunderground v.1.15,2013-03-28 19:34:00,
2013-03-28 15:39:00,50.1,26.7,30.34,NW,309,4.0,9.0,40,0.00,,,0.00,780,Wunderground v.1.15,2013-03-28 19:39:00,
2013-03-28 15:44:00,49.9,25.9,30.34,WNW,303,1.0,8.0,39,0.00,,,0.00,766,Wunderground v.1.15,2013-03-28 19:44:00,
2013-03-28 15:49:00,49.7,26.3,30.34,NW,307,5.0,8.0,40,0.00,,,0.00,759,Wunderground v.1.15,2013-03-28 19:49:00,
2013-03-28 15:54:00,49.9,26.5,30.33,WNW,285,4.0,8.0,40,0.00,,,0.00,745,Wunderground v.1.15,2013-03-28 19:54:00,
2013-03-28 15:59:00,49.8,25.2,30.33,West,269,3.0,5.0,38,0.00,,,0.00,737,Wunderground v.1.15,2013-03-28 19:59:00,
2013-03-28 16:04:00,50.1,27.9,30.33,NNE,28,3.0,7.0,42,0.00,,,0.00,722,Wunderground v.1.15,2013-03-28 20:04:00,
2013-03-28 16:09:00,49.0,25.7,30.33,NNE,30,2.0,4.0,40,0.00,,,0.00,714,Wunderground v.1.15,2013-03-28 20:09:00,
2013-03-28 16:14:00,49.5,24.9,30.33,WNW,303,6.0,9.0,38,0.00,,,0.00,691,Wunderground v.1.15,2013-03-28 20:14:00,
2013-03-28 16:19:00,49.7,26.3,30.33,NNE,32,7.0,7.0,40,0.00,,,0.00,682,Wunderground v.1.15,2013-03-28 20:19:00,
2013-03-28 16:24:00,48.6,27.6,30.33,ENE,72,5.0,10.0,44,0.00,,,0.00,670,Wunderground v.1.15,2013-03-28 20:24:00,
2013-03-28 16:29:00,48.3,26.8,30.33,NNW,329,3.0,5.0,43,0.00,,,0.00,656,Wunderground v.1.15,2013-03-28 20:29:00,
2013-03-28 16:34:00,49.4,26.1,30.33,WNW,292,0.0,7.0,40,0.00,,,0.00,643,Wunderground v.1.15,2013-03-28 20:34:00,
2013-03-28 16:39:00,49.7,25.7,30.32,NW,306,2.0,3.0,39,0.00,,,0.00,629,Wunderground v.1.15,2013-03-28 20:39:00,
2013-03-28 16:44:00,48.5,26.4,30.32,NE,41,2.0,7.0,42,0.00,,,0.00,615,Wunderground v.1.15,2013-03-28 20:44:00,
2013-03-28 16:49:00,49.2,27.6,30.32,NW,320,8.0,8.0,43,0.00,,,0.00,601,Wunderground v.1.15,2013-03-28 20:49:00,
2013-03-28 16:54:00,50.0,26.6,30.32,NW,325,5.0,10.0,40,0.00,,,0.00,584,Wunderground v.1.15,2013-03-28 20:54:00,
2013-03-28 16:59:00,49.7,26.9,30.32,NNE,26,5.0,5.0,41,0.00,,,0.00,570,Wunderground v.1.15,2013-03-28 20:59:00,
2013-03-28 17:04:00,49.0,26.9,30.32,NNE,13,2.0,5.0,42,0.00,,,0.00,550,Wunderground v.1.15,2013-03-28 21:04:00,
2013-03-28 17:09:00,48.6,26.5,30.32,NE,53,3.0,4.0,42,0.00,,,0.00,534,Wunderground v.1.15,2013-03-28 21:09:00,
2013-03-28 17:14:00,48.7,27.2,30.32,ENE,71,4.0,8.0,43,0.00,,,0.00,520,Wunderground v.1.15,2013-03-28 21:14:00,
2013-03-28 17:19:00,48.7,27.2,30.32,East,86,3.0,4.0,43,0.00,,,0.00,504,Wunderground v.1.15,2013-03-28 21:19:00,
2013-03-28 17:24:00,48.6,27.1,30.31,NNE,22,4.0,9.0,43,0.00,,,0.00,489,Wunderground v.1.15,2013-03-28 21:24:00,
2013-03-28 17:29:00,49.2,26.5,30.31,NW,323,3.0,5.0,41,0.00,,,0.00,469,Wunderground v.1.15,2013-03-28 21:29:00,
2013-03-28 17:34:00,49.5,26.7,30.31,NNE,19,10.0,11.0,41,0.00,,,0.00,452,Wunderground v.1.15,2013-03-28 21:34:00,
2013-03-28 17:39:00,49.2,26.5,30.32,North,355,4.0,7.0,41,0.00,,,0.00,434,Wunderground v.1.15,2013-03-28 21:39:00,
2013-03-28 17:44:00,49.2,25.9,30.31,NW,326,0.0,7.0,40,0.00,,,0.00,413,Wunderground v.1.15,2013-03-28 21:44:00,
2013-03-28 17:49:00,49.2,27.6,30.31,North,9,2.0,2.0,43,0.00,,,0.00,401,Wunderground v.1.15,2013-03-28 21:49:00,
2013-03-28 17:54:00,49.6,27.4,30.31,NE,55,4.0,8.0,42,0.00,,,0.00,387,Wunderground v.1.15,2013-03-28 21:54:00,
2013-03-28 17:59:00,48.7,26.6,30.31,NE,45,7.0,7.0,42,0.00,,,0.00,367,Wunderground v.1.15,2013-03-28 21:59:00,
2013-03-28 18:04:00,48.7,27.2,30.31,NNE,28,6.0,10.0,43,0.00,,,0.00,352,Wunderground v.1.15,2013-03-28 22:04:00,
2013-03-28 18:09:00,48.5,27.0,30.31,ENE,62,4.0,7.0,43,0.00,,,0.00,334,Wunderground v.1.15,2013-03-28 22:09:00,
2013-03-28 18:14:00,48.3,27.4,30.31,ENE,69,4.0,7.0,44,0.00,,,0.00,309,Wunderground v.1.15,2013-03-28 22:14:00,
2013-03-28 18:19:00,49.0,27.5,30.31,NE,37,1.0,4.0,43,0.00,,,0.00,292,Wunderground v.1.15,2013-03-28 22:19:00,
2013-03-28 18:24:00,48.6,26.5,30.31,NE,53,6.0,8.0,42,0.00,,,0.00,276,Wunderground v.1.15,2013-03-28 22:24:00,
2013-03-28 18:29:00,48.6,26.5,30.31,North,355,6.0,6.0,42,0.00,,,0.00,257,Wunderground v.1.15,2013-03-28 22:29:00,
2013-03-28 18:34:00,48.7,26.6,30.31,North,360,2.0,7.0,42,0.00,,,0.00,237,Wunderground v.1.15,2013-03-28 22:34:00,
2013-03-28 18:39:00,48.9,26.2,30.31,NNE,27,3.0,4.0,41,0.00,,,0.00,218,Wunderground v.1.15,2013-03-28 22:39:00,
2013-03-28 18:44:00,49.0,26.9,30.31,NNE,13,5.0,6.0,42,0.00,,,0.00,195,Wunderground v.1.15,2013-03-28 22:44:00,
2013-03-28 18:49:00,48.7,27.2,30.32,North,355,2.0,4.0,43,0.00,,,0.00,174,Wunderground v.1.15,2013-03-28 22:49:00,
2013-03-28 18:54:00,48.9,27.4,30.31,NNE,33,6.0,7.0,43,0.00,,,0.00,155,Wunderground v.1.15,2013-03-28 22:54:00,
2013-03-28 18:59:00,48.3,26.8,30.31,NE,34,5.0,5.0,43,0.00,,,0.00,137,Wunderground v.1.15,2013-03-28 22:59:00,
2013-03-28 19:04:00,48.2,26.2,30.31,NW,321,1.0,6.0,42,0.00,,,0.00,120,Wunderground v.1.15,2013-03-28 23:04:00,
2013-03-28 19:09:00,48.5,26.4,30.31,NNW,344,1.0,3.0,42,0.00,,,0.00,100,Wunderground v.1.15,2013-03-28 23:09:00,
2013-03-28 19:14:00,48.4,26.3,30.31,North,355,1.0,3.0,42,0.00,,,0.00,83,Wunderground v.1.15,2013-03-28 23:14:00,
2013-03-28 19:19:00,48.4,26.3,30.31,NW,312,4.0,5.0,42,0.00,,,0.00,67,Wunderground v.1.15,2013-03-28 23:19:00,
2013-03-28 19:24:00,48.2,26.7,30.31,North,349,2.0,5.0,43,0.00,,,0.00,53,Wunderground v.1.15,2013-03-28 23:24:00,
2013-03-28 19:29:00,48.1,26.6,30.31,NNW,329,3.0,5.0,43,0.00,,,0.00,40,Wunderground v.1.15,2013-03-28 23:29:00,
2013-03-28 19:34:00,47.7,26.3,30.32,NE,38,4.0,6.0,43,0.00,,,0.00,30,Wunderground v.1.15,2013-03-28 23:34:00,
2013-03-28 19:39:00,47.2,25.8,30.32,NNE,23,3.0,4.0,43,0.00,,,0.00,21,Wunderground v.1.15,2013-03-28 23:39:00,
2013-03-28 19:44:00,47.0,25.6,30.32,NNE,25,2.0,5.0,43,0.00,,,0.00,16,Wunderground v.1.15,2013-03-28 23:44:00,
2013-03-28 19:49:00,46.8,26.0,30.32,NNE,26,2.0,3.0,44,0.00,,,0.00,11,Wunderground v.1.15,2013-03-28 23:49:00,
2013-03-28 19:54:00,46.5,25.7,30.32,NNE,27,2.0,3.0,44,0.00,,,0.00,7,Wunderground v.1.15,2013-03-28 23:54:00,
2013-03-28 19:59:00,46.4,26.2,30.32,NNE,27,0.0,2.0,45,0.00,,,0.00,5,Wunderground v.1.15,2013-03-28 23:59:00,
2013-03-28 20:04:00,46.4,26.2,30.32,NNE,27,0.0,2.0,45,0.00,,,0.00,0,Wunderground v.1.15,2013-03-29 00:04:00,
2013-03-28 20:09:00,46.1,25.9,30.32,NNE,27,0.0,0.0,45,0.00,,,0.00,0,Wunderground v.1.15,2013-03-29 00:09:00,
2013-03-28 20:14:00,46.0,25.8,30.32,NNE,27,0.0,0.0,45,0.00,,,0.00,0,Wunderground v.1.15,2013-03-29 00:14:00,
2013-03-28 20:19:00,45.8,26.2,30.32,NNE,27,0.0,0.0,46,0.00,,,0.00,0,Wunderground v.1.15,2013-03-29 00:19:00,
2013-03-28 20:24:00,45.4,26.3,30.32,NNE,27,0.0,0.0,47,0.00,,,0.00,0,Wunderground v.1.15,2013-03-29 00:24:00,
2013-03-28 20:29:00,45.1,26.1,30.32,NNE,27,0.0,0.0,47,0.00,,,0.00,0,Wunderground v.1.15,2013-03-29 00:29:00,
2013-03-28 20:34:00,44.9,25.9,30.32,NNE,27,0.0,0.0,47,0.00,,,0.00,0,Wunderground v.1.15,2013-03-29 00:34:00,
2013-03-28 20:39:00,44.6,26.1,30.32,NNE,27,0.0,0.0,48,0.00,,,0.00,0,Wunderground v.1.15,2013-03-29 00:39:00,
2013-03-28 20:44:00,44.6,26.6,30.32,NNE,27,0.0,0.0,49,0.00,,,0.00,0,Wunderground v.1.15,2013-03-29 00:44:00,
2013-03-28 20:49:00,44.4,26.4,30.32,NNE,27,0.0,0.0,49,0.00,,,0.00,0,Wunderground v.1.15,2013-03-29 00:49:00,
2013-03-28 20:54:00,44.4,25.9,30.32,NNE,27,0.0,0.0,48,0.00,,,0.00,0,Wunderground v.1.15,2013-03-29 00:54:00,
2013-03-28 20:59:00,44.2,26.7,30.33,NNE,27,0.0,0.0,50,0.00,,,0.00,0,Wunderground v.1.15,2013-03-29 00:59:00,
2013-03-28 21:04:00,43.6,26.6,30.33,NNE,27,0.0,0.0,51,0.00,,,0.00,0,Wunderground v.1.15,2013-03-29 01:04:00,
2013-03-28 21:09:00,43.2,27.2,30.32,NNE,27,0.0,0.0,53,0.00,,,0.00,0,Wunderground v.1.15,2013-03-29 01:09:00,
2013-03-28 21:14:00,42.8,26.8,30.32,NNE,27,0.0,0.0,53,0.00,,,0.00,0,Wunderground v.1.15,2013-03-29 01:14:00,
2013-03-28 21:19:00,42.4,27.4,30.33,NNE,27,0.0,0.0,55,0.00,,,0.00,0,Wunderground v.1.15,2013-03-29 01:19:00,
2013-03-28 21:24:00,41.8,26.4,30.33,NNE,27,0.0,0.0,54,0.00,,,0.00,0,Wunderground v.1.15,2013-03-29 01:24:00,
2013-03-28 21:29:00,41.6,26.6,30.33,NNE,27,0.0,0.0,55,0.00,,,0.00,0,Wunderground v.1.15,2013-03-29 01:29:00,
2013-03-28 21:34:00,41.3,27.2,30.33,NNE,27,0.0,0.0,57,0.00,,,0.00,0,Wunderground v.1.15,2013-03-29 01:34:00,
2013-03-28 21:39:00,41.2,27.1,30.33,NNE,27,0.0,0.0,57,0.00,,,0.00,0,Wunderground v.1.15,2013-03-29 01:39:00,
2013-03-28 21:44:00,41.0,26.5,30.33,NNE,27,0.0,0.0,56,0.00,,,0.00,0,Wunderground v.1.15,2013-03-29 01:44:00,
2013-03-28 21:49:00,40.7,27.5,30.33,NNE,27,0.0,0.0,59,0.00,,,0.00,0,Wunderground v.1.15,2013-03-29 01:49:00,
2013-03-28 21:54:00,40.5,27.3,30.33,NNE,27,0.0,1.0,59,0.00,,,0.00,0,Wunderground v.1.15,2013-03-29 01:54:00,
2013-03-28 21:59:00,40.5,27.7,30.33,NNE,27,0.0,0.0,60,0.00,,,0.00,0,Wunderground v.1.15,2013-03-29 01:59:00,
2013-03-28 22:04:00,40.2,27.8,30.33,NNE,27,0.0,0.0,61,0.00,,,0.00,0,Wunderground v.1.15,2013-03-29 02:04:00,
2013-03-28 22:09:00,40.2,27.0,30.34,NNE,27,0.0,0.0,59,0.00,,,0.00,0,Wunderground v.1.15,2013-03-29 02:09:00,
2013-03-28 22:14:00,40.2,27.0,30.34,NNE,27,0.0,0.0,59,0.00,,,0.00,0,Wunderground v.1.15,2013-03-29 02:14:00,
2013-03-28 22:19:00,40.2,27.8,30.34,NNE,27,0.0,0.0,61,0.00,,,0.00,0,Wunderground v.1.15,2013-03-29 02:19:00,
2013-03-28 22:24:00,40.1,27.7,30.34,NNE,27,0.0,0.0,61,0.00,,,0.00,0,Wunderground v.1.15,2013-03-29 02:24:00,
2013-03-28 22:29:00,39.6,28.0,30.34,NNE,27,0.0,0.0,63,0.00,,,0.00,0,Wunderground v.1.15,2013-03-29 02:29:00,
2013-03-28 22:34:00,38.9,27.8,30.34,NNE,27,0.0,0.0,64,0.00,,,0.00,0,Wunderground v.1.15,2013-03-29 02:34:00,
2013-03-28 22:39:00,38.4,27.7,30.34,NNE,27,0.0,0.0,65,0.00,,,0.00,0,Wunderground v.1.15,2013-03-29 02:39:00,
2013-03-28 22:44:00,37.6,27.6,30.34,NNE,27,0.0,0.0,67,0.00,,,0.00,0,Wunderground v.1.15,2013-03-29 02:44:00,
2013-03-28 22:49:00,37.0,27.8,30.34,NNE,27,0.0,0.0,69,0.00,,,0.00,0,Wunderground v.1.15,2013-03-29 02:49:00,
2013-03-28 22:54:00,36.8,27.6,30.34,NNE,27,0.0,0.0,69,0.00,,,0.00,0,Wunderground v.1.15,2013-03-29 02:54:00,
2013-03-28 22:59:00,36.7,27.1,30.34,NNE,27,0.0,0.0,68,0.00,,,0.00,0,Wunderground v.1.15,2013-03-29 02:59:00,
2013-03-28 23:04:00,36.7,27.5,30.34,NNE,27,0.0,0.0,69,0.00,,,0.00,0,Wunderground v.1.15,2013-03-29 03:04:00,
2013-03-28 23:09:00,36.5,27.6,30.34,NNE,27,0.0,0.0,70,0.00,,,0.00,0,Wunderground v.1.15,2013-03-29 03:09:00,
2013-03-28 23:15:00,36.1,27.6,30.34,WNW,300,2.0,3.0,71,0.00,,,0.00,0,Wunderground v.1.15,2013-03-29 03:15:00,
2013-03-28 23:20:00,36.0,27.5,30.34,WNW,292,0.0,2.0,71,0.00,,,0.00,0,Wunderground v.1.15,2013-03-29 03:20:00,
2013-03-28 23:25:00,35.9,27.4,30.34,WNW,292,0.0,2.0,71,0.00,,,0.00,0,Wunderground v.1.15,2013-03-29 03:25:00,
2013-03-28 23:30:00,35.5,27.4,30.34,WNW,292,0.0,0.0,72,0.00,,,0.00,0,Wunderground v.1.15,2013-03-29 03:30:00,
2013-03-28 23:35:00,35.4,27.3,30.34,WNW,292,0.0,0.0,72,0.00,,,0.00,0,Wunderground v.1.15,2013-03-29 03:35:00,
2013-03-28 23:40:00,35.4,27.3,30.34,WNW,292,0.0,0.0,72,0.00,,,0.00,0,Wunderground v.1.15,2013-03-29 03:40:00,
2013-03-28 23:45:00,35.5,27.4,30.33,WNW,292,0.0,0.0,72,0.00,,,0.00,0,Wunderground v.1.15,2013-03-29 03:45:00,
2013-03-28 23:50:00,35.3,27.5,30.33,WNW,292,0.0,0.0,73,0.00,,,0.00,0,Wunderground v.1.15,2013-03-29 03:50:00,
2013-03-28 23:55:00,35.1,27.3,30.34,WNW,292,1.0,1.0,73,0.00,,,0.00,0,Wunderground v.1.15,2013-03-29 03:55:00,